createdAt,value
2018-09-25T00:00:39.315Z,1029.55
2018-09-25T00:01:39.306Z,1029.52
2018-09-25T00:02:39.302Z,1029.50
2018-09-25T00:03:39.296Z,1029.51
2018-09-25T00:04:39.285Z,1029.54
2018-09-25T00:05:39.275Z,1029.54
2018-09-25T00:06:39.262Z,1029.55
2018-09-25T00:07:39.256Z,1029.54
2018-09-25T00:08:39.252Z,1029.51
2018-09-25T00:09:39.244Z,1029.53
2018-09-25T00:10:39.235Z,1029.54
2018-09-25T00:11:39.221Z,1029.54
2018-09-25T00:12:39.217Z,1029.55
2018-09-25T00:13:39.209Z,1029.53
2018-09-25T00:14:39.193Z,1029.55
2018-09-25T00:15:39.192Z,1029.54
2018-09-25T00:16:39.178Z,1029.49
2018-09-25T00:17:39.176Z,1029.52
2018-09-25T00:18:39.163Z,1029.53
2018-09-25T00:19:39.161Z,1029.53
2018-09-25T00:20:39.148Z,1029.53
2018-09-25T00:21:39.134Z,1029.53
2018-09-25T00:22:39.128Z,1029.56
2018-09-25T00:23:39.119Z,1029.57
2018-09-25T00:24:39.112Z,1029.53
2018-09-25T00:25:39.100Z,1029.59
2018-09-25T00:26:39.096Z,1029.56
2018-09-25T00:27:39.088Z,1029.54
2018-09-25T00:28:39.077Z,1029.55
2018-09-25T00:29:39.067Z,1029.51
2018-09-25T00:30:39.057Z,1029.52
2018-09-25T00:31:39.049Z,1029.53
2018-09-25T00:32:39.042Z,1029.54
2018-09-25T00:33:39.033Z,1029.53
2018-09-25T00:34:39.024Z,1029.50
2018-09-25T00:35:39.015Z,1029.56
2018-09-25T00:36:39.004Z,1029.55
2018-09-25T00:37:38.994Z,1029.53
2018-09-25T00:38:38.996Z,1029.55
2018-09-25T00:39:38.982Z,1029.54
2018-09-25T00:40:38.972Z,1029.54
2018-09-25T00:41:38.962Z,1029.53
2018-09-25T00:42:38.958Z,1029.55
2018-09-25T00:43:38.942Z,1029.58
2018-09-25T00:44:38.934Z,1029.67
2018-09-25T00:45:38.927Z,1029.68
2018-09-25T00:46:38.921Z,1029.70
2018-09-25T00:47:38.910Z,1029.64
2018-09-25T00:48:38.906Z,1029.66
2018-09-25T00:49:38.891Z,1029.63
2018-09-25T00:50:38.879Z,1029.69
2018-09-25T00:51:38.870Z,1029.70
2018-09-25T00:52:38.864Z,1029.67
2018-09-25T00:53:38.854Z,1029.71
2018-09-25T00:54:38.850Z,1029.72
2018-09-25T00:55:38.838Z,1029.71
2018-09-25T00:56:38.834Z,1029.69
2018-09-25T00:57:38.820Z,1029.70
2018-09-25T00:58:38.813Z,1029.73
2018-09-25T00:59:38.805Z,1029.78
2018-09-25T01:00:38.799Z,1029.76
2018-09-25T01:01:38.791Z,1029.76
2018-09-25T01:02:38.781Z,1029.78
2018-09-25T01:03:38.768Z,1029.72
2018-09-25T01:04:38.758Z,1029.72
2018-09-25T01:05:38.751Z,1029.71
2018-09-25T01:06:38.740Z,1029.72
2018-09-25T01:07:38.732Z,1029.71
2018-09-25T01:08:38.725Z,1029.73
2018-09-25T01:09:38.720Z,1029.73
2018-09-25T01:10:38.708Z,1029.72
2018-09-25T01:11:38.701Z,1029.72
2018-09-25T01:12:38.688Z,1029.71
2018-09-25T01:13:38.679Z,1029.70
2018-09-25T01:14:38.671Z,1029.73
2018-09-25T01:15:38.668Z,1029.78
2018-09-25T01:16:38.655Z,1029.76
2018-09-25T01:17:38.648Z,1029.78
2018-09-25T01:18:38.639Z,1029.79
2018-09-25T01:19:38.630Z,1029.76
2018-09-25T01:20:38.617Z,1029.81
2018-09-25T01:21:38.611Z,1029.78
2018-09-25T01:22:38.603Z,1029.79
2018-09-25T01:23:38.593Z,1029.80
2018-09-25T01:24:38.584Z,1029.77
2018-09-25T01:25:38.577Z,1029.75
2018-09-25T01:26:38.565Z,1029.81
2018-09-25T01:27:38.555Z,1029.82
2018-09-25T01:28:38.550Z,1029.79
2018-09-25T01:29:38.541Z,1029.82
2018-09-25T01:30:38.531Z,1029.80
2018-09-25T01:31:38.520Z,1029.83
2018-09-25T01:32:38.517Z,1029.83
2018-09-25T01:33:38.502Z,1029.83
2018-09-25T01:34:38.495Z,1029.85
2018-09-25T01:35:38.485Z,1029.84
2018-09-25T01:36:38.478Z,1029.87
2018-09-25T01:37:38.467Z,1029.83
2018-09-25T01:38:38.462Z,1029.81
2018-09-25T01:39:38.455Z,1029.81
2018-09-25T01:40:38.439Z,1029.77
2018-09-25T01:41:38.437Z,1029.81
2018-09-25T01:42:38.426Z,1029.80
2018-09-25T01:43:38.418Z,1029.80
2018-09-25T01:44:38.410Z,1029.79
2018-09-25T01:45:38.397Z,1029.81
2018-09-25T01:46:38.391Z,1029.82
2018-09-25T01:47:38.384Z,1029.78
2018-09-25T01:48:38.372Z,1029.82
2018-09-25T01:49:38.359Z,1029.81
2018-09-25T01:50:38.353Z,1029.81
2018-09-25T01:51:38.347Z,1029.83
2018-09-25T01:52:38.340Z,1029.83
2018-09-25T01:53:38.324Z,1029.82
2018-09-25T01:54:38.318Z,1029.81
2018-09-25T01:55:38.308Z,1029.79
2018-09-25T01:56:38.300Z,1029.79
2018-09-25T01:57:38.288Z,1029.81
2018-09-25T01:58:38.284Z,1029.80
2018-09-25T01:59:38.274Z,1029.83
2018-09-25T02:00:38.274Z,1029.82
2018-09-25T02:01:38.258Z,1029.83
2018-09-25T02:02:38.245Z,1029.83
2018-09-25T02:03:38.236Z,1029.79
2018-09-25T02:04:38.233Z,1029.83
2018-09-25T02:05:38.231Z,1029.83
2018-09-25T02:06:38.212Z,1029.81
2018-09-25T02:07:38.203Z,1029.85
2018-09-25T02:08:38.195Z,1029.89
2018-09-25T02:09:38.185Z,1029.89
2018-09-25T02:10:38.175Z,1029.87
2018-09-25T02:11:38.169Z,1029.85
2018-09-25T02:12:38.165Z,1029.89
2018-09-25T02:13:38.151Z,1029.87
2018-09-25T02:14:38.143Z,1029.95
2018-09-25T02:15:38.163Z,1029.98
2018-09-25T02:16:38.124Z,1029.96
2018-09-25T02:17:38.114Z,1030.00
2018-09-25T02:18:38.108Z,1029.99
2018-09-25T02:19:38.099Z,1029.99
2018-09-25T02:20:38.094Z,1030.03
2018-09-25T02:21:38.081Z,1030.00
2018-09-25T02:22:38.073Z,1030.00
2018-09-25T02:23:38.061Z,1029.99
2018-09-25T02:24:38.049Z,1030.00
2018-09-25T02:25:38.040Z,1030.00
2018-09-25T02:26:38.035Z,1030.01
2018-09-25T02:27:38.033Z,1030.01
2018-09-25T02:28:38.016Z,1029.98
2018-09-25T02:29:38.010Z,1029.98
2018-09-25T02:30:38.032Z,1029.98
2018-09-25T02:31:37.991Z,1029.98
2018-09-25T02:32:37.988Z,1029.98
2018-09-25T02:33:37.997Z,1030.02
2018-09-25T02:34:37.968Z,1030.03
2018-09-25T02:35:37.958Z,1030.02
2018-09-25T02:36:37.952Z,1030.01
2018-09-25T02:37:37.938Z,1030.07
2018-09-25T02:38:37.928Z,1030.06
2018-09-25T02:39:37.920Z,1030.08
2018-09-25T02:40:37.909Z,1030.12
2018-09-25T02:41:37.907Z,1030.10
2018-09-25T02:42:37.898Z,1030.08
2018-09-25T02:43:37.885Z,1030.08
2018-09-25T02:44:37.880Z,1030.00
2018-09-25T02:45:37.865Z,1030.03
2018-09-25T02:46:37.854Z,1030.01
2018-09-25T02:47:37.854Z,1030.04
2018-09-25T02:48:37.840Z,1030.03
2018-09-25T02:49:37.828Z,1029.99
2018-09-25T02:50:37.822Z,1030.01
2018-09-25T02:51:37.814Z,1030.01
2018-09-25T02:52:37.805Z,1030.03
2018-09-25T02:53:37.802Z,1030.03
2018-09-25T02:54:37.791Z,1030.05
2018-09-25T02:55:37.779Z,1030.05
2018-09-25T02:56:37.768Z,1030.06
2018-09-25T02:57:37.760Z,1030.04
2018-09-25T02:58:37.748Z,1030.06
2018-09-25T02:59:37.742Z,1030.07
2018-09-25T03:00:37.737Z,1030.09
2018-09-25T03:01:37.723Z,1030.07
2018-09-25T03:02:37.721Z,1030.09
2018-09-25T03:03:37.708Z,1030.07
2018-09-25T03:04:37.699Z,1030.10
2018-09-25T03:05:37.691Z,1030.13
2018-09-25T03:06:37.686Z,1030.13
2018-09-25T03:07:37.670Z,1030.17
2018-09-25T03:08:37.663Z,1030.18
2018-09-25T03:09:37.654Z,1030.12
2018-09-25T03:10:37.650Z,1030.14
2018-09-25T03:11:37.636Z,1030.07
2018-09-25T03:12:37.626Z,1030.06
2018-09-25T03:13:37.615Z,1030.03
2018-09-25T03:14:37.610Z,1030.04
2018-09-25T03:15:37.597Z,1030.07
2018-09-25T03:16:37.587Z,1030.08
2018-09-25T03:17:37.583Z,1030.08
2018-09-25T03:18:37.575Z,1030.05
2018-09-25T03:19:37.563Z,1030.05
2018-09-25T03:20:37.558Z,1030.06
2018-09-25T03:21:37.543Z,1030.01
2018-09-25T03:22:37.542Z,1030.03
2018-09-25T03:23:37.530Z,1030.02
2018-09-25T03:24:37.519Z,1030.04
2018-09-25T03:25:37.510Z,1030.03
2018-09-25T03:26:37.501Z,1030.04
2018-09-25T03:27:37.492Z,1030.02
2018-09-25T03:28:37.481Z,1030.06
2018-09-25T03:29:37.471Z,1030.06
2018-09-25T03:30:37.459Z,1030.03
2018-09-25T03:31:37.456Z,1030.00
2018-09-25T03:32:37.456Z,1030.02
2018-09-25T03:33:37.437Z,1029.97
2018-09-25T03:34:37.435Z,1030.00
2018-09-25T03:35:37.414Z,1030.04
2018-09-25T03:36:37.409Z,1030.01
2018-09-25T03:37:37.399Z,1030.01
2018-09-25T03:38:37.392Z,1030.01
2018-09-25T03:39:37.390Z,1029.97
2018-09-25T03:40:37.373Z,1030.00
2018-09-25T03:41:37.363Z,1029.99
2018-09-25T03:42:37.354Z,1029.99
2018-09-25T03:43:37.343Z,1030.00
2018-09-25T03:44:37.334Z,1030.00
2018-09-25T03:45:37.330Z,1029.99
2018-09-25T03:46:37.320Z,1030.02
2018-09-25T03:47:37.309Z,1030.01
2018-09-25T03:48:37.300Z,1029.97
2018-09-25T03:49:37.288Z,1029.99
2018-09-25T03:50:58.288Z,1029.95
2018-09-25T03:51:37.275Z,1029.97
2018-09-25T03:52:37.268Z,1029.98
2018-09-25T03:53:37.257Z,1030.01
2018-09-25T03:54:37.243Z,1030.01
2018-09-25T03:55:37.236Z,1029.97
2018-09-25T03:56:37.225Z,1029.99
2018-09-25T03:57:37.231Z,1030.00
2018-09-25T03:58:37.209Z,1030.03
2018-09-25T03:59:37.224Z,1030.00
2018-09-25T04:00:37.193Z,1030.03
2018-09-25T04:01:37.181Z,1030.07
2018-09-25T04:02:37.185Z,1030.03
2018-09-25T04:03:37.164Z,1030.04
2018-09-25T04:04:37.153Z,1030.05
2018-09-25T04:05:37.150Z,1030.07
2018-09-25T04:06:37.139Z,1030.07
2018-09-25T04:07:37.129Z,1030.04
2018-09-25T04:08:37.121Z,1030.07
2018-09-25T04:09:37.116Z,1030.11
2018-09-25T04:10:37.101Z,1030.12
2018-09-25T04:11:37.088Z,1030.11
2018-09-25T04:12:37.083Z,1030.14
2018-09-25T04:13:37.069Z,1030.16
2018-09-25T04:14:37.063Z,1030.16
2018-09-25T04:15:37.053Z,1030.17
2018-09-25T04:16:37.046Z,1030.21
2018-09-25T04:17:37.036Z,1030.23
2018-09-25T04:18:37.023Z,1030.26
2018-09-25T04:19:37.017Z,1030.27
2018-09-25T04:20:37.008Z,1030.27
2018-09-25T04:21:37.001Z,1030.27
2018-09-25T04:22:36.991Z,1030.27
2018-09-25T04:23:36.984Z,1030.29
2018-09-25T04:24:36.977Z,1030.30
2018-09-25T04:25:36.959Z,1030.30
2018-09-25T04:26:36.950Z,1030.29
2018-09-25T04:27:36.942Z,1030.33
2018-09-25T04:28:36.935Z,1030.35
2018-09-25T04:29:36.928Z,1030.36
2018-09-25T04:30:36.917Z,1030.39
2018-09-25T04:31:36.909Z,1030.39
2018-09-25T04:32:36.898Z,1030.42
2018-09-25T04:33:36.886Z,1030.42
2018-09-25T04:34:36.886Z,1030.42
2018-09-25T04:35:36.877Z,1030.45
2018-09-25T04:36:36.865Z,1030.43
2018-09-25T04:37:36.855Z,1030.47
2018-09-25T04:38:36.845Z,1030.44
2018-09-25T04:39:36.830Z,1030.43
2018-09-25T04:40:36.831Z,1030.43
2018-09-25T04:41:36.818Z,1030.43
2018-09-25T04:42:36.854Z,1030.45
2018-09-25T04:43:36.802Z,1030.44
2018-09-25T04:44:36.791Z,1030.44
2018-09-25T04:45:36.783Z,1030.49
2018-09-25T04:46:36.768Z,1030.46
2018-09-25T04:47:36.758Z,1030.48
2018-09-25T04:48:36.753Z,1030.47
2018-09-25T04:49:36.743Z,1030.47
2018-09-25T04:50:36.734Z,1030.47
2018-09-25T04:51:36.727Z,1030.51
2018-09-25T04:52:36.715Z,1030.50
2018-09-25T04:53:36.703Z,1030.50
2018-09-25T04:54:36.694Z,1030.52
2018-09-25T04:55:36.685Z,1030.51
2018-09-25T04:56:36.683Z,1030.51
2018-09-25T04:57:36.670Z,1030.51
2018-09-25T04:58:36.654Z,1030.50
2018-09-25T04:59:36.651Z,1030.51
2018-09-25T05:00:36.638Z,1030.54
2018-09-25T05:01:36.628Z,1030.52
2018-09-25T05:02:36.622Z,1030.49
2018-09-25T05:03:36.615Z,1030.46
2018-09-25T05:04:36.607Z,1030.46
2018-09-25T05:05:36.596Z,1030.43
2018-09-25T05:06:36.642Z,1030.44
2018-09-25T05:07:36.577Z,1030.45
2018-09-25T05:08:36.570Z,1030.49
2018-09-25T05:09:36.557Z,1030.49
2018-09-25T05:10:36.549Z,1030.51
2018-09-25T05:11:36.540Z,1030.54
2018-09-25T05:12:36.533Z,1030.58
2018-09-25T05:13:36.518Z,1030.56
2018-09-25T05:14:36.517Z,1030.59
2018-09-25T05:15:36.504Z,1030.53
2018-09-25T05:16:36.492Z,1030.58
2018-09-25T05:17:36.485Z,1030.56
2018-09-25T05:18:36.476Z,1030.58
2018-09-25T05:19:36.469Z,1030.59
2018-09-25T05:20:36.453Z,1030.54
2018-09-25T05:21:36.447Z,1030.51
2018-09-25T05:22:36.433Z,1030.54
2018-09-25T05:23:36.479Z,1030.55
2018-09-25T05:24:36.419Z,1030.57
2018-09-25T05:25:36.410Z,1030.58
2018-09-25T05:26:36.399Z,1030.58
2018-09-25T05:27:36.388Z,1030.58
2018-09-25T05:28:36.389Z,1030.55
2018-09-25T05:29:36.368Z,1030.60
2018-09-25T05:30:36.358Z,1030.59
2018-09-25T05:31:36.354Z,1030.59
2018-09-25T05:32:36.347Z,1030.59
2018-09-25T05:33:36.333Z,1030.55
2018-09-25T05:34:36.325Z,1030.59
2018-09-25T05:35:36.316Z,1030.53
2018-09-25T05:36:36.304Z,1030.52
2018-09-25T05:37:36.293Z,1030.54
2018-09-25T05:38:36.285Z,1030.56
2018-09-25T05:39:36.276Z,1030.61
2018-09-25T05:40:36.268Z,1030.62
2018-09-25T05:41:36.260Z,1030.62
2018-09-25T05:42:36.251Z,1030.63
2018-09-25T05:43:36.237Z,1030.64
2018-09-25T05:44:36.227Z,1030.72
2018-09-25T05:45:36.225Z,1030.73
2018-09-25T05:46:36.219Z,1030.72
2018-09-25T05:47:36.204Z,1030.75
2018-09-25T05:48:36.334Z,1030.76
2018-09-25T05:49:36.183Z,1030.76
2018-09-25T05:50:36.172Z,1030.79
2018-09-25T05:51:36.161Z,1030.82
2018-09-25T05:52:36.161Z,1030.84
2018-09-25T05:53:36.148Z,1030.81
2018-09-25T05:54:36.136Z,1030.85
2018-09-25T05:55:36.135Z,1030.89
2018-09-25T05:56:36.116Z,1030.88
2018-09-25T05:57:36.108Z,1030.85
2018-09-25T05:58:36.099Z,1030.84
2018-09-25T05:59:36.091Z,1030.83
2018-09-25T06:00:36.087Z,1030.88
2018-09-25T06:01:36.076Z,1030.87
2018-09-25T06:02:36.059Z,1030.89
2018-09-25T06:03:36.059Z,1030.91
2018-09-25T06:04:36.044Z,1030.89
2018-09-25T06:05:36.033Z,1030.91
2018-09-25T06:06:36.032Z,1030.94
2018-09-25T06:07:36.019Z,1030.92
2018-09-25T06:08:36.009Z,1030.95
2018-09-25T06:09:36.023Z,1030.93
2018-09-25T06:10:35.991Z,1030.94
2018-09-25T06:11:35.976Z,1030.96
2018-09-25T06:12:35.971Z,1030.97
2018-09-25T06:13:35.962Z,1030.95
2018-09-25T06:14:35.953Z,1030.95
2018-09-25T06:15:35.984Z,1030.92
2018-09-25T06:16:35.942Z,1030.94
2018-09-25T06:17:35.929Z,1030.94
2018-09-25T06:18:35.945Z,1030.96
2018-09-25T06:19:35.907Z,1030.99
2018-09-25T06:20:35.896Z,1031.02
2018-09-25T06:21:35.911Z,1031.00
2018-09-25T06:22:35.878Z,1031.05
2018-09-25T06:23:35.872Z,1031.04
2018-09-25T06:24:35.862Z,1031.07
2018-09-25T06:25:35.849Z,1031.11
2018-09-25T06:26:35.837Z,1031.09
2018-09-25T06:27:35.831Z,1031.09
2018-09-25T06:28:35.834Z,1031.09
2018-09-25T06:29:35.814Z,1031.10
2018-09-25T06:30:35.803Z,1031.10
2018-09-25T06:31:35.800Z,1031.13
2018-09-25T06:32:35.788Z,1031.15
2018-09-25T06:33:35.778Z,1031.07
2018-09-25T06:34:35.815Z,1031.18
2018-09-25T06:35:35.762Z,1031.18
2018-09-25T06:36:35.748Z,1031.17
2018-09-25T06:37:35.741Z,1031.19
2018-09-25T06:38:35.733Z,1031.20
2018-09-25T06:39:35.718Z,1031.27
2018-09-25T06:40:35.711Z,1031.26
2018-09-25T06:41:35.700Z,1031.23
2018-09-25T06:42:35.698Z,1031.22
2018-09-25T06:43:35.687Z,1031.23
2018-09-25T06:44:35.677Z,1031.21
2018-09-25T06:45:35.663Z,1031.22
2018-09-25T06:46:35.657Z,1031.21
2018-09-25T06:47:35.644Z,1031.23
2018-09-25T06:48:35.642Z,1031.22
2018-09-25T06:49:35.630Z,1031.24
2018-09-25T06:50:35.624Z,1031.24
2018-09-25T06:51:35.617Z,1031.28
2018-09-25T06:52:35.602Z,1031.25
2018-09-25T06:53:35.591Z,1031.30
2018-09-25T06:54:35.618Z,1031.30
2018-09-25T06:55:35.576Z,1031.33
2018-09-25T06:56:35.579Z,1031.36
2018-09-25T06:57:35.559Z,1031.35
2018-09-25T06:58:35.554Z,1031.36
2018-09-25T06:59:35.537Z,1031.36
2018-09-25T07:00:35.527Z,1031.33
2018-09-25T07:01:35.519Z,1031.37
2018-09-25T07:02:35.511Z,1031.41
2018-09-25T07:03:35.507Z,1031.36
2018-09-25T07:04:35.498Z,1031.36
2018-09-25T07:05:35.488Z,1031.36
2018-09-25T07:06:35.476Z,1031.40
2018-09-25T07:07:35.494Z,1031.43
2018-09-25T07:08:35.458Z,1031.45
2018-09-25T07:09:35.511Z,1031.43
2018-09-25T07:10:35.505Z,1031.50
2018-09-25T07:11:35.433Z,1031.48
2018-09-25T07:12:35.424Z,1031.49
2018-09-25T07:13:35.414Z,1031.49
2018-09-25T07:14:35.403Z,1031.50
2018-09-25T07:15:35.395Z,1031.56
2018-09-25T07:16:35.385Z,1031.53
2018-09-25T07:17:35.411Z,1031.53
2018-09-25T07:18:35.372Z,1031.57
2018-09-25T07:19:35.360Z,1031.58
2018-09-25T07:20:35.353Z,1031.52
2018-09-25T07:21:35.341Z,1031.58
2018-09-25T07:22:35.373Z,1031.51
2018-09-25T07:23:35.323Z,1031.59
2018-09-25T07:24:35.396Z,1031.59
2018-09-25T07:25:35.308Z,1031.59
2018-09-25T07:26:35.296Z,1031.65
2018-09-25T07:27:35.302Z,1031.61
2018-09-25T07:28:35.277Z,1031.65
2018-09-25T07:29:36.041Z,1031.65
2018-09-25T07:30:35.260Z,1031.70
2018-09-25T07:31:35.257Z,1031.70
2018-09-25T07:32:35.248Z,1031.71
2018-09-25T07:33:35.237Z,1031.69
2018-09-25T07:34:35.229Z,1031.68
2018-09-25T07:35:35.219Z,1031.73
2018-09-25T07:36:35.209Z,1031.71
2018-09-25T07:37:35.212Z,1031.71
2018-09-25T07:38:35.197Z,1031.75
2018-09-25T07:39:35.222Z,1031.75
2018-09-25T07:40:35.177Z,1031.80
2018-09-25T07:41:35.171Z,1031.81
2018-09-25T07:42:35.160Z,1031.83
2018-09-25T07:43:35.148Z,1031.86
2018-09-25T07:44:35.140Z,1031.81
2018-09-25T07:45:35.129Z,1031.80
2018-09-25T07:46:35.131Z,1031.82
2018-09-25T07:47:35.122Z,1031.78
2018-09-25T07:48:35.112Z,1031.80
2018-09-25T07:49:35.099Z,1031.83
2018-09-25T07:50:35.090Z,1031.85
2018-09-25T07:51:35.101Z,1031.83
2018-09-25T07:52:35.075Z,1031.88
2018-09-25T07:53:35.068Z,1031.91
2018-09-25T07:54:35.063Z,1031.92
2018-09-25T07:55:35.129Z,1031.95
2018-09-25T07:56:35.040Z,1031.98
2018-09-25T07:57:35.030Z,1032.04
2018-09-25T07:58:35.025Z,1032.01
2018-09-25T07:59:35.021Z,1032.04
2018-09-25T08:00:35.006Z,1032.04
2018-09-25T08:01:34.996Z,1032.07
2018-09-25T08:02:34.992Z,1032.05
2018-09-25T08:03:35.041Z,1032.05
2018-09-25T08:04:34.970Z,1032.10
2018-09-25T08:05:34.960Z,1032.04
2018-09-25T08:06:34.950Z,1032.05
2018-09-25T08:07:34.950Z,1032.09
2018-09-25T08:08:34.938Z,1032.08
2018-09-25T08:09:34.931Z,1032.08
2018-09-25T08:10:34.929Z,1032.11
2018-09-25T08:11:34.913Z,1032.10
2018-09-25T08:12:34.909Z,1032.09
2018-09-25T08:13:34.894Z,1032.11
2018-09-25T08:14:34.894Z,1032.10
2018-09-25T08:15:34.923Z,1032.10
2018-09-25T08:16:34.875Z,1032.07
2018-09-25T08:17:34.864Z,1032.06
2018-09-25T08:18:34.859Z,1032.08
2018-09-25T08:19:34.846Z,1032.05
2018-09-25T08:20:34.837Z,1032.11
2018-09-25T08:21:34.843Z,1032.12
2018-09-25T08:22:34.830Z,1032.12
2018-09-25T08:23:34.817Z,1032.12
2018-09-25T08:24:34.806Z,1032.13
2018-09-25T08:25:34.796Z,1032.12
2018-09-25T08:26:34.787Z,1032.16
2018-09-25T08:27:34.784Z,1032.13
2018-09-25T08:28:34.776Z,1032.16
2018-09-25T08:29:34.779Z,1032.20
2018-09-25T08:30:34.760Z,1032.17
2018-09-25T08:31:34.775Z,1032.20
2018-09-25T08:32:34.740Z,1032.17
2018-09-25T08:33:34.734Z,1032.22
2018-09-25T08:34:34.727Z,1032.23
2018-09-25T08:35:34.726Z,1032.23
2018-09-25T08:36:34.710Z,1032.27
2018-09-25T08:37:34.703Z,1032.27
2018-09-25T08:38:34.707Z,1032.27
2018-09-25T08:39:34.807Z,1032.33
2018-09-25T08:40:34.676Z,1032.26
2018-09-25T08:41:34.672Z,1032.26
2018-09-25T08:42:34.661Z,1032.30
2018-09-25T08:43:34.657Z,1032.33
2018-09-25T08:44:34.649Z,1032.29
2018-09-25T08:45:34.640Z,1032.32
2018-09-25T08:46:34.634Z,1032.43
2018-09-25T08:47:34.627Z,1032.44
2018-09-25T08:48:34.617Z,1032.39
2018-09-25T08:49:34.621Z,1032.43
2018-09-25T08:50:34.606Z,1032.45
2018-09-25T08:51:34.598Z,1032.52
2018-09-25T08:52:34.595Z,1032.52
2018-09-25T08:53:34.651Z,1032.51
2018-09-25T08:54:34.584Z,1032.53
2018-09-25T08:55:34.584Z,1032.49
2018-09-25T08:56:34.580Z,1032.54
2018-09-25T08:57:34.575Z,1032.55
2018-09-25T08:58:34.570Z,1032.61
2018-09-25T08:59:34.569Z,1032.58
2018-09-25T09:00:34.561Z,1032.58
2018-09-25T09:01:34.559Z,1032.55
2018-09-25T09:02:34.557Z,1032.57
2018-09-25T09:03:34.559Z,1032.55
2018-09-25T09:04:34.556Z,1032.58
2018-09-25T09:05:34.554Z,1032.56
2018-09-25T09:06:34.556Z,1032.58
2018-09-25T09:07:34.551Z,1032.55
2018-09-25T09:08:34.552Z,1032.52
2018-09-25T09:09:34.551Z,1032.53
2018-09-25T09:10:34.551Z,1032.47
2018-09-25T09:11:34.553Z,1032.57
2018-09-25T09:12:34.554Z,1032.57
2018-09-25T09:13:34.551Z,1032.58
2018-09-25T09:14:34.556Z,1032.58
2018-09-25T09:15:34.554Z,1032.62
2018-09-25T09:16:34.564Z,1032.65
2018-09-25T09:17:34.559Z,1032.60
2018-09-25T09:18:34.563Z,1032.65
2018-09-25T09:19:34.588Z,1032.65
2018-09-25T09:20:34.573Z,1032.62
2018-09-25T09:21:34.568Z,1032.64
2018-09-25T09:22:34.878Z,1032.59
2018-09-25T09:23:34.571Z,1032.66
2018-09-25T09:24:34.574Z,1032.64
2018-09-25T09:25:34.582Z,1032.67
2018-09-25T09:26:34.583Z,1032.65
2018-09-25T09:27:34.596Z,1032.64
2018-09-25T09:28:34.591Z,1032.65
2018-09-25T09:29:34.587Z,1032.67
2018-09-25T09:30:34.592Z,1032.65
2018-09-25T09:31:34.595Z,1032.66
2018-09-25T09:32:34.635Z,1032.66
2018-09-25T09:33:34.609Z,1032.61
2018-09-25T09:34:34.608Z,1032.64
2018-09-25T09:35:34.611Z,1032.61
2018-09-25T09:36:34.612Z,1032.61
2018-09-25T09:37:34.617Z,1032.58
2018-09-25T09:38:34.619Z,1032.59
2018-09-25T09:39:34.630Z,1032.60
2018-09-25T09:40:34.631Z,1032.64
2018-09-25T09:41:34.722Z,1032.64
2018-09-25T09:42:34.639Z,1032.66
2018-09-25T09:43:34.639Z,1032.64
2018-09-25T09:44:34.643Z,1032.64
2018-09-25T09:45:34.649Z,1032.61
2018-09-25T09:46:34.655Z,1032.61
2018-09-25T09:47:34.655Z,1032.56
2018-09-25T09:48:34.662Z,1032.58
2018-09-25T09:49:34.665Z,1032.59
2018-09-25T09:50:34.744Z,1032.59
2018-09-25T09:51:34.680Z,1032.61
2018-09-25T09:52:34.691Z,1032.60
2018-09-25T09:53:34.684Z,1032.63
2018-09-25T09:54:34.692Z,1032.65
2018-09-25T09:55:34.695Z,1032.66
2018-09-25T09:56:34.701Z,1032.61
2018-09-25T09:57:34.701Z,1032.60
2018-09-25T09:58:34.704Z,1032.62
2018-09-25T09:59:34.710Z,1032.60
2018-09-25T10:00:34.715Z,1032.62
2018-09-25T10:01:34.721Z,1032.62
2018-09-25T10:02:34.726Z,1032.65
2018-09-25T10:03:34.730Z,1032.64
2018-09-25T10:04:34.735Z,1032.68
2018-09-25T10:05:34.735Z,1032.68
2018-09-25T10:06:34.744Z,1032.67
2018-09-25T10:07:34.745Z,1032.71
2018-09-25T10:08:34.754Z,1032.67
2018-09-25T10:09:34.758Z,1032.68
2018-09-25T10:10:34.760Z,1032.70
2018-09-25T10:11:34.772Z,1032.71
2018-09-25T10:12:34.787Z,1032.69
2018-09-25T10:13:34.782Z,1032.71
2018-09-25T10:14:34.778Z,1032.70
2018-09-25T10:15:34.783Z,1032.66
2018-09-25T10:16:34.789Z,1032.72
2018-09-25T10:17:34.792Z,1032.71
2018-09-25T10:18:34.794Z,1032.71
2018-09-25T10:19:34.803Z,1032.74
2018-09-25T10:20:34.809Z,1032.76
2018-09-25T10:21:34.815Z,1032.76
2018-09-25T10:22:34.820Z,1032.75
2018-09-25T10:23:34.825Z,1032.79
2018-09-25T10:24:34.832Z,1032.80
2018-09-25T10:25:34.836Z,1032.81
2018-09-25T10:26:34.842Z,1032.78
2018-09-25T10:27:34.848Z,1032.76
2018-09-25T10:28:34.849Z,1032.79
2018-09-25T10:29:34.856Z,1032.73
2018-09-25T10:30:34.858Z,1032.75
2018-09-25T10:31:34.865Z,1032.73
2018-09-25T10:32:34.872Z,1032.81
2018-09-25T10:33:34.876Z,1032.80
2018-09-25T10:34:34.878Z,1032.80
2018-09-25T10:35:34.880Z,1032.77
2018-09-25T10:36:34.889Z,1032.75
2018-09-25T10:37:34.898Z,1032.76
2018-09-25T10:38:34.898Z,1032.73
2018-09-25T10:39:34.903Z,1032.70
2018-09-25T10:40:34.903Z,1032.71
2018-09-25T10:41:34.905Z,1032.67
2018-09-25T10:42:34.909Z,1032.68
2018-09-25T10:43:34.914Z,1032.66
2018-09-25T10:44:34.921Z,1032.67
2018-09-25T10:45:34.925Z,1032.62
2018-09-25T10:46:34.925Z,1032.61
2018-09-25T10:47:34.927Z,1032.62
2018-09-25T10:48:34.929Z,1032.61
2018-09-25T10:49:34.933Z,1032.62
2018-09-25T10:50:34.939Z,1032.65
2018-09-25T10:51:34.939Z,1032.72
2018-09-25T10:52:34.944Z,1032.70
2018-09-25T10:53:34.949Z,1032.64
2018-09-25T10:54:34.963Z,1032.69
2018-09-25T10:55:34.953Z,1032.61
2018-09-25T10:56:34.959Z,1032.61
2018-09-25T10:57:34.963Z,1032.62
2018-09-25T10:58:34.965Z,1032.58
2018-09-25T10:59:34.968Z,1032.59
2018-09-25T11:00:34.975Z,1032.60
2018-09-25T11:01:34.981Z,1032.59
2018-09-25T11:02:34.987Z,1032.58
2018-09-25T11:03:34.980Z,1032.56
2018-09-25T11:04:34.983Z,1032.61
2018-09-25T11:05:34.991Z,1032.57
2018-09-25T11:06:34.988Z,1032.55
2018-09-25T11:07:34.992Z,1032.61
2018-09-25T11:08:34.994Z,1032.63
2018-09-25T11:09:35.000Z,1032.64
2018-09-25T11:10:34.999Z,1032.62
2018-09-25T11:11:35.060Z,1032.63
2018-09-25T11:12:35.004Z,1032.60
2018-09-25T11:13:35.002Z,1032.62
2018-09-25T11:14:35.003Z,1032.64
2018-09-25T11:15:35.009Z,1032.62
2018-09-25T11:16:35.008Z,1032.64
2018-09-25T11:17:35.016Z,1032.66
2018-09-25T11:18:35.012Z,1032.67
2018-09-25T11:19:35.010Z,1032.67
2018-09-25T11:20:35.012Z,1032.63
2018-09-25T11:21:35.012Z,1032.66
2018-09-25T11:22:35.110Z,1032.69
2018-09-25T11:23:35.014Z,1032.71
2018-09-25T11:24:35.103Z,1032.69
2018-09-25T11:25:35.051Z,1032.68
2018-09-25T11:26:39.563Z,1032.67
2018-09-25T11:27:35.030Z,1032.73
2018-09-25T11:28:35.020Z,1032.68
2018-09-25T11:29:35.005Z,1032.69
2018-09-25T11:30:34.999Z,1032.62
2018-09-25T11:31:35.000Z,1032.61
2018-09-25T11:32:34.997Z,1032.56
2018-09-25T11:33:34.996Z,1032.51
2018-09-25T11:34:35.000Z,1032.49
2018-09-25T11:35:34.999Z,1032.46
2018-09-25T11:36:34.995Z,1032.48
2018-09-25T11:37:34.993Z,1032.47
2018-09-25T11:38:34.994Z,1032.42
2018-09-25T11:39:34.988Z,1032.44
2018-09-25T11:40:34.986Z,1032.43
2018-09-25T11:41:34.989Z,1032.41
2018-09-25T11:42:34.986Z,1032.41
2018-09-25T11:43:34.983Z,1032.39
2018-09-25T11:44:34.991Z,1032.38
2018-09-25T11:45:34.978Z,1032.41
2018-09-25T11:46:35.014Z,1032.38
2018-09-25T11:47:34.974Z,1032.36
2018-09-25T11:48:34.977Z,1032.32
2018-09-25T11:49:34.973Z,1032.38
2018-09-25T11:50:34.968Z,1032.37
2018-09-25T11:51:35.116Z,1032.38
2018-09-25T11:52:34.964Z,1032.40
2018-09-25T11:53:34.980Z,1032.44
2018-09-25T11:54:34.959Z,1032.47
2018-09-25T11:55:34.975Z,1032.49
2018-09-25T11:56:34.995Z,1032.50
2018-09-25T11:57:34.959Z,1032.50
2018-09-25T11:58:35.013Z,1032.57
2018-09-25T11:59:34.956Z,1032.54
2018-09-25T12:00:34.960Z,1032.55
2018-09-25T12:01:34.952Z,1032.59
2018-09-25T12:02:34.956Z,1032.56
2018-09-25T12:03:34.956Z,1032.54
2018-09-25T12:04:34.994Z,1032.54
2018-09-25T12:05:34.953Z,1032.51